Time;durP1;ratioP1;P1;durP2;ratioP2;P2;SDS_P1;SDS_P2;PMS_P1;PMS_P2;Temp;Humidity;BMP_temperature;BMP_pressure;BME280_temperature;BME280_humidity;BME280_pressure;Samples;Min_cycle;Max_cycle;Signal;HPM_P1;HPM_P2
2021/11/18 00:00:46;;;;;;;4.00;2.63;;;;;;;3.42;100.00;97773.09;5014140;28;20545;-61
2021/11/18 00:03:13;;;;;;;5.63;2.83;;;;;;;3.34;100.00;97779.19;5006101;28;20044;-62
2021/11/18 00:05:38;;;;;;;3.45;2.15;;;;;;;3.43;100.00;97769.31;5009820;28;20052;-61
2021/11/18 00:08:05;;;;;;;9.63;2.80;;;;;;;3.55;100.00;97769.66;4999288;28;20042;-63
2021/11/18 00:10:40;;;;;;;7.93;3.10;;;;;;;3.48;100.00;97771.16;5012650;28;20052;-62
2021/11/18 00:13:10;;;;;;;5.20;2.88;;;;;;;3.36;100.00;97769.66;5011801;28;20050;-63
2021/11/18 00:15:37;;;;;;;5.00;3.00;;;;;;;3.30;100.00;97765.44;5020782;28;20042;-62
2021/11/18 00:18:08;;;;;;;4.18;2.55;;;;;;;3.36;100.00;97766.16;5017917;28;20154;-63
2021/11/18 00:20:37;;;;;;;3.40;2.42;;;;;;;3.51;100.00;97767.81;5010077;28;20072;-62
2021/11/18 00:23:04;;;;;;;3.45;2.40;;;;;;;3.55;100.00;97758.81;5008840;28;20033;-62
2021/11/18 00:25:30;;;;;;;3.45;2.40;;;;;;;3.52;100.00;97759.41;5016897;28;20040;-63
2021/11/18 00:27:56;;;;;;;4.70;2.50;;;;;;;3.55;100.00;97752.63;5006275;28;20038;-63
2021/11/18 00:30:21;;;;;;;4.20;2.72;;;;;;;3.53;100.00;97754.78;5008193;28;20498;-62
2021/11/18 00:32:48;;;;;;;6.47;3.38;;;;;;;3.43;100.00;97748.44;5008289;28;20042;-63
2021/11/18 00:35:17;;;;;;;7.13;3.22;;;;;;;3.08;100.00;97751.66;5012766;28;20407;-62
2021/11/18 00:37:44;;;;;;;6.13;3.42;;;;;;;3.02;100.00;97759.03;5008376;28;20045;-61
2021/11/18 00:40:10;;;;;;;4.78;2.80;;;;;;;3.05;100.00;97758.47;5007635;28;20065;-64
2021/11/18 00:42:36;;;;;;;4.25;2.75;;;;;;;3.05;100.00;97758.47;5021826;28;20124;-63
2021/11/18 00:45:03;;;;;;;5.20;3.10;;;;;;;3.07;100.00;97764.38;5009570;28;20145;-62
2021/11/18 00:47:28;;;;;;;5.38;3.50;;;;;;;3.09;100.00;97756.78;5009352;28;20051;-61
2021/11/18 00:49:54;;;;;;;7.18;4.35;;;;;;;2.90;100.00;97755.94;5018416;28;20136;-63
2021/11/18 00:52:21;;;;;;;6.65;4.40;;;;;;;2.81;100.00;97753.09;5002482;28;20392;-63
2021/11/18 00:54:47;;;;;;;7.15;4.53;;;;;;;2.72;100.00;97741.28;5017491;28;20042;-61
2021/11/18 00:57:13;;;;;;;7.43;4.40;;;;;;;2.79;100.00;97747.97;5004313;28;20054;-62
2021/11/18 00:59:39;;;;;;;8.35;4.80;;;;;;;2.80;100.00;97746.88;5017499;28;20049;-60
2021/11/18 01:02:04;;;;;;;10.10;5.45;;;;;;;2.78;100.00;97748.28;5010353;28;20359;-63
2021/11/18 01:04:30;;;;;;;8.73;5.30;;;;;;;2.65;100.00;97760.59;5009010;28;20046;-63
2021/11/18 01:06:56;;;;;;;8.35;5.38;;;;;;;2.62;100.00;97758.47;5012423;28;20045;-63
2021/11/18 01:09:22;;;;;;;7.07;4.55;;;;;;;2.62;100.00;97755.75;5015352;28;20631;-61
2021/11/18 01:11:48;;;;;;;7.63;4.28;;;;;;;2.66;100.00;97756.78;5011259;28;20525;-62
2021/11/18 01:14:16;;;;;;;17.52;8.52;;;;;;;2.74;100.00;97769.69;4996290;28;20057;-62
2021/11/18 01:16:43;;;;;;;7.97;4.95;;;;;;;2.73;100.00;97767.28;5011017;28;20140;-61
2021/11/18 01:19:10;;;;;;;6.93;4.28;;;;;;;2.84;100.00;97769.53;4995540;28;20045;-62
2021/11/18 01:21:37;;;;;;;5.80;3.95;;;;;;;2.96;100.00;97773.75;5016313;28;20041;-63
2021/11/18 01:24:04;;;;;;;5.93;4.15;;;;;;;3.08;100.00;97782.25;5011004;28;20041;-63
2021/11/18 01:26:29;;;;;;;5.85;4.07;;;;;;;3.17;100.00;97779.69;5008115;28;20140;-65
2021/11/18 01:28:55;;;;;;;8.32;3.92;;;;;;;3.25;100.00;97785.25;5011916;28;20327;-63
2021/11/18 01:31:21;;;;;;;6.10;3.83;;;;;;;3.31;100.00;97777.84;5007778;28;20053;-62
2021/11/18 01:33:47;;;;;;;7.50;3.80;;;;;;;3.31;100.00;97771.66;5011853;28;20490;-63
2021/11/18 01:36:13;;;;;;;6.18;3.88;;;;;;;3.31;100.00;97771.66;5012611;28;20129;-63
2021/11/18 01:38:38;;;;;;;6.38;3.92;;;;;;;3.33;100.00;97775.69;5006832;28;20494;-61
2021/11/18 01:41:08;;;;;;;7.65;4.07;;;;;;;3.39;100.00;97774.50;5007333;28;20529;-62
2021/11/18 01:43:49;;;;;;;6.57;3.72;;;;;;;3.43;100.00;97770.09;5008165;28;20046;-63
2021/11/18 01:46:18;;;;;;;5.97;3.85;;;;;;;3.44;100.00;97766.31;5014336;28;20041;-61
2021/11/18 01:48:48;;;;;;;5.05;3.45;;;;;;;3.45;100.00;97775.22;5008115;28;20041;-62
2021/11/18 01:51:15;;;;;;;6.57;3.88;;;;;;;3.49;100.00;97762.69;5002994;28;20057;-61
2021/11/18 01:53:44;;;;;;;6.85;3.55;;;;;;;3.44;100.00;97755.47;5013886;28;20038;-61
2021/11/18 01:56:14;;;;;;;11.30;4.28;;;;;;;3.46;100.00;97752.47;4998438;28;20059;-61
2021/11/18 01:58:40;;;;;;;7.53;4.28;;;;;;;3.36;100.00;97755.31;4995764;28;20049;-60
2021/11/18 02:01:09;;;;;;;7.03;4.30;;;;;;;3.22;100.00;97758.78;4998220;28;20084;-62
2021/11/18 02:03:35;;;;;;;8.57;4.57;;;;;;;2.76;100.00;97753.16;4997146;28;20050;-58
2021/11/18 02:06:09;;;;;;;8.52;5.07;;;;;;;2.77;100.00;97763.69;5010156;28;20106;-60
2021/11/18 02:08:36;;;;;;;7.22;4.18;;;;;;;2.77;100.00;97769.09;5008394;28;20236;-63
2021/11/18 02:11:08;;;;;;;8.20;4.10;;;;;;;2.81;100.00;97772.03;5009918;28;20045;-62
2021/11/18 02:13:34;;;;;;;6.90;4.05;;;;;;;2.94;100.00;97760.50;5006192;28;20077;-58
2021/11/18 02:16:02;;;;;;;5.75;4.00;;;;;;;2.98;100.00;97758.03;5011606;28;20037;-62
2021/11/18 02:18:35;;;;;;;5.93;4.03;;;;;;;3.04;100.00;97754.97;5017263;28;20104;-63
2021/11/18 02:21:04;;;;;;;7.63;4.68;;;;;;;3.05;100.00;97747.66;5012576;28;20076;-63
2021/11/18 02:23:37;;;;;;;7.18;4.53;;;;;;;3.00;100.00;97743.09;5017506;28;20056;-62
2021/11/18 02:26:04;;;;;;;7.05;4.03;;;;;;;2.83;100.00;97754.41;5008422;28;20042;-62
2021/11/18 02:28:33;;;;;;;6.10;4.00;;;;;;;2.72;100.00;97746.72;5019040;28;20517;-62
2021/11/18 02:31:01;;;;;;;7.03;4.70;;;;;;;2.64;100.00;97745.47;5025760;28;20046;-61
2021/11/18 02:33:28;;;;;;;5.97;3.85;;;;;;;2.59;100.00;97740.09;5005888;28;20287;-61
2021/11/18 02:35:56;;;;;;;6.85;4.53;;;;;;;2.57;100.00;97745.78;5014879;28;20038;-63
2021/11/18 02:38:22;;;;;;;8.02;5.15;;;;;;;2.37;100.00;97744.13;5008891;28;22052;-62
2021/11/18 02:40:48;;;;;;;7.00;4.43;;;;;;;2.28;100.00;97749.38;5018662;28;20063;-63
2021/11/18 02:43:15;;;;;;;7.72;4.60;;;;;;;2.26;100.00;97748.06;5017402;28;20034;-63
2021/11/18 02:45:43;;;;;;;8.40;4.93;;;;;;;2.20;100.00;97743.81;5018206;28;20061;-62
2021/11/18 02:48:10;;;;;;;6.68;4.75;;;;;;;2.13;100.00;97744.13;5001615;28;20085;-64
2021/11/18 02:50:39;;;;;;;8.43;5.72;;;;;;;2.06;100.00;97738.25;5000653;28;20054;-62
2021/11/18 02:53:06;;;;;;;7.28;5.40;;;;;;;1.98;100.00;97738.88;5012964;28;20069;-62
2021/11/18 02:55:36;;;;;;;8.73;5.97;;;;;;;1.92;100.00;97738.13;5008212;28;20053;-63
2021/11/18 02:58:03;;;;;;;8.32;5.88;;;;;;;1.83;100.00;97742.53;5005613;28;20069;-62
2021/11/18 03:00:36;;;;;;;7.05;4.95;;;;;;;1.71;100.00;97743.72;5002404;28;20076;-62
2021/11/18 03:03:02;;;;;;;8.18;5.57;;;;;;;1.69;100.00;97740.50;5004353;28;20104;-61
2021/11/18 03:05:27;;;;;;;8.55;5.28;;;;;;;1.71;100.00;97737.47;4994728;28;20061;-61
2021/11/18 03:07:57;;;;;;;8.20;4.80;;;;;;;1.68;100.00;97732.66;5001476;28;20041;-62
2021/11/18 03:10:24;;;;;;;7.95;5.22;;;;;;;1.67;100.00;97739.16;4991807;28;20141;-62
2021/11/18 03:12:49;;;;;;;9.30;6.22;;;;;;;1.58;100.00;97732.75;4997860;28;20772;-63
2021/11/18 03:15:15;;;;;;;8.50;5.50;;;;;;;1.37;100.00;97749.09;4994592;28;20046;-65
2021/11/18 03:17:41;;;;;;;11.68;6.43;;;;;;;1.07;100.00;97753.59;5002006;28;20046;-57
2021/11/18 03:20:10;;;;;;;10.25;5.97;;;;;;;1.00;100.00;97758.50;5003473;28;20034;-60
2021/11/18 03:22:35;;;;;;;9.65;5.85;;;;;;;1.03;100.00;97762.56;5000083;28;20064;-66
2021/11/18 03:25:03;;;;;;;9.90;6.00;;;;;;;1.19;100.00;97760.53;4997169;28;20116;-61
2021/11/18 03:27:28;;;;;;;10.00;5.78;;;;;;;1.36;100.00;97768.28;5009110;28;20042;-62
2021/11/18 03:29:54;;;;;;;8.30;5.25;;;;;;;1.34;100.00;97782.06;5010514;28;20096;-62
2021/11/18 03:32:19;;;;;;;7.93;4.47;;;;;;;1.30;100.00;97784.50;4977075;28;20415;-63
2021/11/18 03:34:45;;;;;;;7.68;5.15;;;;;;;1.22;100.00;97776.19;4993047;28;20050;-61
2021/11/18 03:37:10;;;;;;;8.70;5.35;;;;;;;1.27;100.00;97770.75;4995677;28;20457;-62
2021/11/18 03:39:38;;;;;;;5.60;3.97;;;;;;;1.33;100.00;97786.66;4999837;28;20049;-62
2021/11/18 03:42:07;;;;;;;8.60;4.93;;;;;;;1.35;100.00;97783.66;5002498;28;20099;-62
2021/11/18 03:44:33;;;;;;;9.07;5.82;;;;;;;1.36;100.00;97781.78;5012256;28;20040;-63
2021/11/18 03:47:03;;;;;;;9.48;5.10;;;;;;;1.29;100.00;97777.47;5005482;28;20046;-62
2021/11/18 03:49:29;;;;;;;10.57;5.72;;;;;;;1.10;100.00;97788.13;4997960;28;20046;-63
2021/11/18 03:51:57;;;;;;;9.20;5.70;;;;;;;0.98;100.00;97795.75;5015478;28;20038;-63
2021/11/18 03:54:24;;;;;;;9.05;5.65;;;;;;;0.86;100.00;97785.28;5010498;28;20045;-64
2021/11/18 03:56:51;;;;;;;10.43;6.63;;;;;;;0.74;100.00;97788.31;5012638;28;20042;-63
2021/11/18 03:59:20;;;;;;;9.85;6.35;;;;;;;0.71;100.00;97785.34;5000801;28;20046;-62
2021/11/18 04:01:47;;;;;;;10.43;6.53;;;;;;;0.65;100.00;97789.13;5016535;28;20033;-61
2021/11/18 04:04:16;;;;;;;11.52;6.75;;;;;;;0.63;100.00;97799.38;5010301;28;20083;-63
2021/11/18 04:06:42;;;;;;;11.85;6.90;;;;;;;0.60;100.00;97795.38;5012706;28;20081;-63
2021/11/18 04:09:09;;;;;;;11.57;6.65;;;;;;;0.55;100.00;97789.97;5006033;28;20504;-63
2021/11/18 04:11:35;;;;;;;9.77;6.30;;;;;;;0.51;100.00;97788.94;5010046;28;20077;-63
2021/11/18 04:14:00;;;;;;;9.50;5.95;;;;;;;0.52;100.00;97801.31;5009992;28;20052;-62
2021/11/18 04:16:26;;;;;;;9.00;5.53;;;;;;;0.70;100.00;97795.34;5007367;28;20276;-62
2021/11/18 04:18:53;;;;;;;10.35;5.60;;;;;;;0.93;100.00;97807.34;5011048;28;20128;-62
2021/11/18 04:21:19;;;;;;;7.90;5.35;;;;;;;0.89;100.00;97814.41;5001017;28;20039;-62
2021/11/18 04:23:44;;;;;;;9.23;5.75;;;;;;;0.75;100.00;97803.38;5007100;28;20525;-62
2021/11/18 04:26:10;;;;;;;11.20;6.53;;;;;;;0.74;100.00;97801.78;5006297;28;20044;-62
2021/11/18 04:28:36;;;;;;;8.07;5.75;;;;;;;0.87;100.00;97807.69;5007633;28;20088;-62
2021/11/18 04:31:06;;;;;;;10.98;5.80;;;;;;;1.04;100.00;97808.13;5002068;28;20069;-62
2021/11/18 04:33:34;;;;;;;8.70;5.78;;;;;;;1.18;100.00;97810.22;5008371;28;20387;-62
2021/11/18 04:36:00;;;;;;;9.45;5.55;;;;;;;1.29;100.00;97804.47;5012951;28;20513;-61
2021/11/18 04:38:27;;;;;;;8.80;5.45;;;;;;;1.34;100.00;97809.06;5010552;28;20050;-63
2021/11/18 04:40:54;;;;;;;7.90;4.45;;;;;;;1.46;100.00;97819.50;5011502;28;20042;-62
2021/11/18 04:43:20;;;;;;;8.15;5.32;;;;;;;1.68;100.00;97822.59;5011232;28;20372;-62
2021/11/18 04:45:46;;;;;;;8.10;4.72;;;;;;;1.77;100.00;97812.00;5011039;28;20041;-63
2021/11/18 04:48:12;;;;;;;8.27;5.10;;;;;;;1.74;100.00;97811.75;5010719;28;20038;-63
2021/11/18 04:50:37;;;;;;;8.68;5.47;;;;;;;1.80;100.00;97821.41;5013509;28;20041;-63
2021/11/18 04:53:04;;;;;;;9.90;5.20;;;;;;;2.02;100.00;97829.09;5012647;28;20077;-62
2021/11/18 04:55:30;;;;;;;9.48;4.55;;;;;;;2.08;100.00;97831.47;5010603;28;20045;-63
2021/11/18 04:57:56;;;;;;;8.52;4.60;;;;;;;2.12;100.00;97842.50;5022073;28;20124;-62
2021/11/18 05:00:36;;;;;;;9.13;4.47;;;;;;;2.18;100.00;97849.50;5005315;28;20853;-64
2021/11/18 05:03:02;;;;;;;19.63;5.47;;;;;;;2.22;100.00;97845.13;4996533;28;20127;-60
2021/11/18 05:05:27;;;;;;;8.38;4.60;;;;;;;2.29;100.00;97851.00;5005058;28;20128;-61
2021/11/18 05:07:54;;;;;;;9.05;5.57;;;;;;;2.31;100.00;97842.63;5009904;28;20841;-62
2021/11/18 05:10:21;;;;;;;9.77;5.38;;;;;;;2.23;100.00;97837.81;5008300;28;20111;-62
2021/11/18 05:12:46;;;;;;;8.82;5.68;;;;;;;2.20;100.00;97835.72;5004634;28;20038;-60
2021/11/18 05:15:17;;;;;;;8.73;5.00;;;;;;;2.15;100.00;97838.44;4992658;28;20487;-63
2021/11/18 05:17:43;;;;;;;10.25;5.45;;;;;;;1.94;100.00;97827.78;5011846;28;20072;-62
2021/11/18 05:20:09;;;;;;;8.98;5.32;;;;;;;1.77;100.00;97840.91;5001918;28;20095;-62
2021/11/18 05:22:35;;;;;;;8.43;5.28;;;;;;;1.66;100.00;97848.28;4999029;28;20141;-62
2021/11/18 05:25:00;;;;;;;10.32;5.38;;;;;;;1.63;100.00;97854.22;5004997;28;20117;-62
2021/11/18 05:27:26;;;;;;;21.10;7.63;;;;;;;1.54;100.00;97854.00;4992121;28;20596;-63
2021/11/18 05:29:52;;;;;;;18.77;6.78;;;;;;;1.56;100.00;97854.53;5004195;28;20548;-61
2021/11/18 05:32:18;;;;;;;19.08;7.55;;;;;;;1.61;100.00;97868.00;4992126;28;20129;-61
2021/11/18 05:34:44;;;;;;;15.27;6.55;;;;;;;1.74;100.00;97879.28;4993629;28;20062;-64
2021/11/18 05:37:09;;;;;;;10.45;5.90;;;;;;;1.96;100.00;97882.34;4983275;28;20727;-64
2021/11/18 05:39:35;;;;;;;10.52;5.47;;;;;;;2.05;100.00;97875.28;4997745;28;20107;-62
2021/11/18 05:42:02;;;;;;;10.57;6.32;;;;;;;1.98;100.00;97877.50;4995554;28;20459;-62
2021/11/18 05:44:28;;;;;;;9.93;6.10;;;;;;;1.88;100.00;97880.28;4993509;28;20504;-60
2021/11/18 05:46:53;;;;;;;12.93;6.35;;;;;;;1.94;100.00;97883.72;5010252;28;20046;-62
2021/11/18 05:49:19;;;;;;;9.85;5.72;;;;;;;1.97;100.00;97902.09;5006204;28;20173;-62
2021/11/18 05:51:45;;;;;;;8.85;5.22;;;;;;;2.08;100.00;97909.03;5000282;28;20111;-61
2021/11/18 05:54:12;;;;;;;10.45;5.50;;;;;;;2.11;100.00;97911.19;4991191;28;20042;-62
2021/11/18 05:56:38;;;;;;;11.07;6.35;;;;;;;1.95;100.00;97902.38;4999867;28;20139;-62
2021/11/18 05:59:04;;;;;;;13.10;6.55;;;;;;;2.06;100.00;97903.09;4999527;28;20042;-61
2021/11/18 06:01:30;;;;;;;9.63;5.95;;;;;;;2.13;100.00;97890.09;4991016;28;20242;-62
2021/11/18 06:03:57;;;;;;;10.52;6.10;;;;;;;2.22;100.00;97885.69;4991651;28;20520;-62
2021/11/18 06:06:23;;;;;;;11.05;6.20;;;;;;;2.30;100.00;97892.38;4985845;28;20583;-61
2021/11/18 06:08:48;;;;;;;10.23;6.30;;;;;;;2.28;100.00;97902.66;5008766;28;20053;-64
2021/11/18 06:11:15;;;;;;;10.30;5.57;;;;;;;2.27;100.00;97901.88;5009360;28;20042;-64
2021/11/18 06:13:41;;;;;;;9.35;5.93;;;;;;;2.32;100.00;97911.81;5017496;28;20042;-64
2021/11/18 06:16:07;;;;;;;13.13;6.35;;;;;;;2.19;100.00;97905.16;5014618;28;20045;-63
2021/11/18 06:18:33;;;;;;;11.65;6.50;;;;;;;2.12;100.00;97904.66;5014237;28;20914;-63
2021/11/18 06:20:58;;;;;;;11.55;6.63;;;;;;;2.12;100.00;97899.25;5001591;28;20072;-63
2021/11/18 06:23:24;;;;;;;17.77;6.65;;;;;;;2.20;100.00;97919.50;5003736;28;20053;-63
2021/11/18 06:25:50;;;;;;;13.93;6.53;;;;;;;2.05;100.00;97915.81;5004939;28;20430;-63
2021/11/18 06:28:16;;;;;;;14.07;6.13;;;;;;;2.03;100.00;97923.38;5000234;28;20038;-62
2021/11/18 06:31:00;;;;;;;12.25;6.40;;;;;;;2.05;100.00;97923.94;5014927;28;20046;-62
2021/11/18 06:33:26;;;;;;;14.63;6.60;;;;;;;2.13;100.00;97917.09;5006748;28;20046;-64
2021/11/18 06:35:51;;;;;;;18.02;7.68;;;;;;;2.16;100.00;97924.66;5025807;28;20042;-64
2021/11/18 06:38:17;;;;;;;12.68;7.93;;;;;;;2.16;100.00;97929.25;5018320;28;20037;-64
2021/11/18 06:40:46;;;;;;;18.55;8.85;;;;;;;2.10;100.00;97925.78;5022569;28;20042;-63
2021/11/18 06:43:11;;;;;;;17.42;8.13;;;;;;;1.99;100.00;97922.34;5010054;28;20041;-64
2021/11/18 06:45:38;;;;;;;13.73;7.93;;;;;;;1.83;100.00;97934.31;5003011;28;20101;-65
2021/11/18 06:48:05;;;;;;;10.32;6.45;;;;;;;1.84;100.00;97942.16;4987282;28;20050;-61
2021/11/18 06:50:31;;;;;;;9.88;5.93;;;;;;;1.98;100.00;97938.81;5006875;28;20096;-62
2021/11/18 06:52:57;;;;;;;9.38;5.93;;;;;;;2.04;100.00;97941.22;5002439;28;20045;-62
2021/11/18 06:55:23;;;;;;;8.45;5.13;;;;;;;2.00;100.00;97950.16;4992104;28;20535;-63
2021/11/18 06:57:50;;;;;;;11.70;6.25;;;;;;;1.90;100.00;97948.34;5010684;28;20514;-61
2021/11/18 07:00:16;;;;;;;11.73;6.30;;;;;;;1.76;100.00;97958.13;4993877;28;20049;-63
2021/11/18 07:02:42;;;;;;;11.27;6.55;;;;;;;1.62;100.00;97956.06;5004203;28;20461;-62
2021/11/18 07:05:08;;;;;;;11.80;6.68;;;;;;;1.56;100.00;97954.44;4998694;28;20103;-62
2021/11/18 07:07:33;;;;;;;14.38;6.80;;;;;;;1.76;100.00;97953.53;5008732;28;20174;-62
2021/11/18 07:10:01;;;;;;;13.98;6.72;;;;;;;1.89;100.00;97954.81;5006250;28;20037;-62
2021/11/18 07:12:28;;;;;;;11.82;6.40;;;;;;;2.00;100.00;97945.56;4995408;28;20142;-64
2021/11/18 07:14:53;;;;;;;12.85;6.50;;;;;;;2.17;100.00;97949.78;5007739;28;20065;-62
2021/11/18 07:17:19;;;;;;;10.07;6.07;;;;;;;2.26;100.00;97957.00;5000841;28;20096;-61
2021/11/18 07:19:45;;;;;;;12.93;6.30;;;;;;;2.37;100.00;97959.66;5000906;28;20096;-62
2021/11/18 07:22:11;;;;;;;10.05;6.05;;;;;;;2.49;100.00;97966.31;4994986;28;20042;-63
2021/11/18 07:24:36;;;;;;;11.77;6.28;;;;;;;2.53;100.00;97965.75;5011471;28;20037;-64
2021/11/18 07:27:02;;;;;;;10.25;5.63;;;;;;;2.60;100.00;97963.53;5008611;28;20564;-63
2021/11/18 07:29:28;;;;;;;9.65;5.30;;;;;;;2.58;100.00;97966.50;5000520;28;20037;-63
2021/11/18 07:31:54;;;;;;;9.75;5.72;;;;;;;2.70;100.00;97960.72;5007375;28;20045;-59
2021/11/18 07:34:19;;;;;;;11.07;5.82;;;;;;;2.80;100.00;97970.66;5004658;28;20086;-63
2021/11/18 07:36:46;;;;;;;12.45;6.00;;;;;;;2.65;100.00;97969.69;5012377;28;20050;-62
2021/11/18 07:39:14;;;;;;;10.63;5.65;;;;;;;2.70;100.00;97958.00;5012992;28;20061;-63
2021/11/18 07:41:40;;;;;;;12.85;5.47;;;;;;;2.73;100.00;97965.56;5009043;28;20041;-63
2021/11/18 07:44:07;;;;;;;17.15;11.25;;;;;;;2.66;100.00;97963.19;5001873;28;20128;-63
2021/11/18 07:46:32;;;;;;;22.00;13.52;;;;;;;2.36;100.00;97966.97;5009040;28;20042;-62
2021/11/18 07:48:58;;;;;;;17.58;7.47;;;;;;;2.14;100.00;97980.88;5007729;28;20099;-61
2021/11/18 07:51:24;;;;;;;14.05;7.00;;;;;;;2.09;100.00;97975.53;5010632;28;20044;-60
2021/11/18 07:53:50;;;;;;;16.23;8.35;;;;;;;2.33;100.00;97980.22;5003795;28;20380;-62
2021/11/18 07:56:18;;;;;;;12.05;6.95;;;;;;;2.74;100.00;97974.47;5003695;28;20406;-62
2021/11/18 07:58:43;;;;;;;14.15;6.47;;;;;;;2.96;100.00;97971.31;5011867;28;20099;-59
2021/11/18 08:01:10;;;;;;;78.32;54.05;;;;;;;2.57;100.00;97989.22;5004238;28;20042;-62
2021/11/18 08:03:36;;;;;;;16.05;8.10;;;;;;;2.17;100.00;97985.72;5009052;28;20053;-63
2021/11/18 08:06:03;;;;;;;15.35;8.45;;;;;;;2.07;100.00;97989.31;5008179;28;20029;-62
2021/11/18 08:08:29;;;;;;;12.82;7.97;;;;;;;2.10;100.00;97977.91;5011404;28;20044;-61
2021/11/18 08:10:54;;;;;;;11.50;7.10;;;;;;;2.31;100.00;97980.50;5007096;28;20037;-61
2021/11/18 08:13:21;;;;;;;27.85;19.42;;;;;;;2.21;100.00;97975.97;5007609;28;20041;-62
2021/11/18 08:15:46;;;;;;;21.98;14.57;;;;;;;2.41;100.00;97969.63;5016279;28;20041;-61
2021/11/18 08:18:12;;;;;;;26.25;17.10;;;;;;;2.57;100.00;97966.78;5006984;28;20446;-63
2021/11/18 08:20:37;;;;;;;18.67;11.60;;;;;;;2.71;100.00;97973.16;5014117;28;20045;-63
2021/11/18 08:23:04;;;;;;;14.63;8.98;;;;;;;2.88;100.00;97975.44;5013062;28;20080;-62
2021/11/18 08:25:32;;;;;;;17.23;11.52;;;;;;;3.05;100.00;97983.94;5011433;28;20145;-63
2021/11/18 08:27:57;;;;;;;15.23;8.82;;;;;;;3.12;100.00;97986.31;5008263;28;20033;-63
2021/11/18 08:30:28;;;;;;;19.05;11.95;;;;;;;3.33;100.00;97980.66;5011199;28;20574;-62
2021/11/18 08:32:56;;;;;;;17.85;9.50;;;;;;;3.37;100.00;97985.22;5016230;28;20135;-61
2021/11/18 08:35:30;;;;;;;15.15;10.07;;;;;;;3.56;100.00;97984.47;5014554;28;20534;-61
2021/11/18 08:38:07;;;;;;;15.18;10.20;;;;;;;3.52;100.00;97992.38;5018321;28;20033;-62
2021/11/18 08:40:34;;;;;;;13.70;7.60;;;;;;;3.74;100.00;97997.25;5012580;28;20417;-62
2021/11/18 08:43:01;;;;;;;12.77;8.45;;;;;;;3.92;100.00;97998.38;5021707;28;20042;-64
2021/11/18 08:45:27;;;;;;;13.25;8.00;;;;;;;4.16;100.00;97995.63;5017514;28;20065;-63
2021/11/18 08:47:53;;;;;;;11.27;7.50;;;;;;;4.44;100.00;97993.03;5021922;28;20069;-64
2021/11/18 08:50:21;;;;;;;10.18;7.18;;;;;;;4.48;100.00;97993.25;5016851;28;20042;-63
2021/11/18 08:52:48;;;;;;;15.38;9.40;;;;;;;4.45;100.00;98001.97;5018429;28;20069;-64
2021/11/18 08:55:23;;;;;;;26.08;8.35;;;;;;;4.74;100.00;97999.09;5016679;28;20143;-62
2021/11/18 08:57:50;;;;;;;13.98;8.43;;;;;;;5.29;100.00;97984.81;5021627;28;20120;-63
2021/11/18 09:00:32;;;;;;;13.32;7.75;;;;;;;5.51;100.00;97993.09;5016367;28;20100;-62
2021/11/18 09:02:58;;;;;;;13.80;7.68;;;;;;;6.22;100.00;97992.75;5020573;28;20494;-62
2021/11/18 09:05:26;;;;;;;10.73;6.75;;;;;;;6.70;98.22;97992.16;5016520;28;20047;-61
2021/11/18 09:07:52;;;;;;;12.57;6.45;;;;;;;7.48;92.90;97999.19;5020312;28;20041;-63
2021/11/18 09:10:18;;;;;;;13.38;7.93;;;;;;;6.39;97.31;97996.72;5012721;28;20095;-63
2021/11/18 09:12:45;;;;;;;12.20;7.05;;;;;;;6.95;96.35;98008.19;5017523;28;20048;-63
2021/11/18 09:15:14;;;;;;;11.48;6.88;;;;;;;7.64;90.64;98007.75;4989427;28;20425;-63
2021/11/18 09:17:40;;;;;;;13.73;7.35;;;;;;;7.17;90.96;98005.44;4990455;28;20038;-63
2021/11/18 09:20:09;;;;;;;12.93;7.85;;;;;;;7.56;92.79;98003.88;4988283;28;20030;-61
2021/11/18 09:22:35;;;;;;;13.60;7.28;;;;;;;8.50;84.39;98006.34;4988126;28;20042;-63
2021/11/18 09:25:03;;;;;;;11.52;6.10;;;;;;;9.25;80.22;98014.28;4992596;28;20062;-63
2021/11/18 09:27:33;;;;;;;10.48;6.65;;;;;;;10.22;74.27;98014.66;4989411;28;20038;-63
2021/11/18 09:30:03;;;;;;;11.85;7.18;;;;;;;10.33;69.76;98005.78;4990370;28;20129;-62
2021/11/18 09:32:32;;;;;;;14.18;6.82;;;;;;;8.56;78.24;98004.25;4987168;28;20062;-61
2021/11/18 09:35:00;;;;;;;9.45;6.15;;;;;;;8.00;81.29;98012.97;4990673;28;20041;-62
2021/11/18 09:37:25;;;;;;;12.25;7.72;;;;;;;8.48;78.34;98018.69;4986557;28;20133;-62
2021/11/18 09:39:52;;;;;;;10.98;6.90;;;;;;;7.96;82.60;98014.75;4986491;28;20484;-59
2021/11/18 09:42:22;;;;;;;11.38;7.18;;;;;;;9.54;76.25;98023.69;4985099;28;20046;-60
2021/11/18 09:45:05;;;;;;;10.15;6.78;;;;;;;9.91;71.33;98024.03;4991688;28;20069;-60
2021/11/18 09:48:08;;;;;;;9.80;6.10;;;;;;;11.17;68.09;98026.81;4986656;28;20042;-63
2021/11/18 09:50:49;;;;;;;10.13;6.50;;;;;;;12.21;62.83;98026.75;4992134;28;20049;-62
2021/11/18 09:53:29;;;;;;;10.27;5.60;;;;;;;12.70;60.49;98017.59;4981761;28;20034;-63
2021/11/18 09:56:07;;;;;;;8.98;5.35;;;;;;;13.21;57.75;98020.56;4991128;28;20038;-63
2021/11/18 09:58:54;;;;;;;8.65;6.13;;;;;;;13.63;56.17;98028.41;4986280;28;20070;-64
2021/11/18 10:01:31;;;;;;;9.15;5.93;;;;;;;11.26;61.38;98037.69;4985797;28;20048;-64
2021/11/18 10:04:41;;;;;;;10.13;7.00;;;;;;;10.25;65.85;98031.22;4989810;28;20038;-64
2021/11/18 10:07:15;;;;;;;10.80;6.80;;;;;;;10.37;67.76;98027.81;4946511;28;20495;-64
2021/11/18 10:10:05;;;;;;;10.23;6.78;;;;;;;11.92;60.93;98031.31;4988049;28;20487;-64
2021/11/18 10:12:55;;;;;;;9.55;6.35;;;;;;;11.06;62.67;98029.16;4989786;28;20113;-62
2021/11/18 10:15:24;;;;;;;11.05;6.82;;;;;;;9.21;71.93;98029.72;4985505;28;20049;-63
2021/11/18 10:17:54;;;;;;;;;;;;;;;9.27;70.84;98033.88;4990419;28;20041;-63
2021/11/18 10:20:24;;;;;;;;;;;;;;;10.92;65.98;98031.41;4985887;28;20397;-62
2021/11/18 10:23:03;;;;;;;10.43;6.18;;;;;;;11.84;61.91;98030.25;4987383;28;19917;-63
2021/11/18 10:25:37;;;;;;;8.32;5.65;;;;;;;12.04;60.74;98023.06;4988065;28;20038;-63
2021/11/18 10:28:18;;;;;;;10.77;6.65;;;;;;;12.34;59.65;98016.53;4986109;28;20044;-62
2021/11/18 10:30:54;;;;;;;13.27;6.35;;;;;;;13.18;56.76;98024.84;4990507;28;20046;-63
2021/11/18 10:33:38;;;;;;;7.80;5.53;;;;;;;12.99;55.89;98019.19;4984231;28;20038;-62
2021/11/18 10:36:45;;;;;;;12.27;6.80;;;;;;;9.85;66.15;98028.88;4984650;28;20049;-62
2021/11/18 10:39:23;;;;;;;10.95;6.93;;;;;;;9.49;70.81;98026.59;4980933;28;20042;-63
2021/11/18 10:42:02;;;;;;;10.63;6.03;;;;;;;10.95;65.61;98010.72;4988594;28;20077;-65
2021/11/18 10:44:44;;;;;;;7.07;5.07;;;;;;;11.62;61.24;98008.72;4987576;28;20046;-64
2021/11/18 10:47:27;;;;;;;8.95;6.50;;;;;;;10.93;64.51;98008.34;4981022;28;20085;-64
2021/11/18 10:50:00;;;;;;;17.70;7.30;;;;;;;11.57;62.65;98006.22;4987984;28;20376;-62
2021/11/18 10:52:46;;;;;;;8.85;6.47;;;;;;;11.81;61.14;98006.25;4976834;28;20069;-64
2021/11/18 10:55:17;;;;;;;10.05;6.47;;;;;;;12.09;59.43;98008.31;4983620;28;20049;-64
2021/11/18 10:58:14;;;;;;;11.57;7.30;;;;;;;11.17;61.88;98006.81;4988614;28;20402;-63
2021/11/18 11:00:45;;;;;;;9.88;6.68;;;;;;;11.62;60.48;98001.28;4991894;28;20046;-62
2021/11/18 11:03:19;;;;;;;10.57;6.80;;;;;;;11.70;60.64;98004.28;4987515;28;20125;-63
2021/11/18 11:05:47;;;;;;;15.52;6.90;;;;;;;12.59;57.12;97998.03;4992708;28;20152;-61
2021/11/18 11:08:29;;;;;;;10.90;6.93;;;;;;;12.02;57.95;97994.34;4988940;28;20038;-64
2021/11/18 11:11:03;;;;;;;8.73;5.95;;;;;;;12.37;57.73;97991.09;4993209;28;20045;-64
2021/11/18 11:13:32;;;;;;;10.68;6.05;;;;;;;12.85;56.10;97992.09;4993328;28;20047;-65
2021/11/18 11:16:00;;;;;;;10.27;6.40;;;;;;;12.23;57.17;97996.97;4993725;28;20060;-64
2021/11/18 11:18:42;;;;;;;8.65;5.60;;;;;;;12.43;55.74;97989.72;4987091;28;20057;-63
2021/11/18 11:21:34;;;;;;;8.77;5.40;;;;;;;12.57;56.63;97992.88;4995169;28;20048;-63
2021/11/18 11:24:22;;;;;;;8.40;5.65;;;;;;;13.14;54.33;97992.88;4999008;28;20041;-63
2021/11/18 11:27:13;;;;;;;8.80;5.45;;;;;;;13.41;53.34;97988.50;4994957;28;20065;-65
2021/11/18 11:30:00;;;;;;;8.25;5.35;;;;;;;13.60;53.25;97985.06;4993100;28;20038;-63
2021/11/18 11:32:46;;;;;;;9.07;5.55;;;;;;;12.94;54.15;97981.72;4985534;28;20049;-64
2021/11/18 11:35:50;;;;;;;7.63;5.43;;;;;;;13.79;52.32;97975.28;4988108;28;20048;-64
2021/11/18 11:38:28;;;;;;;7.93;5.68;;;;;;;13.66;52.92;97972.63;4987396;28;20038;-64